Currently 60°F in San Jacinto, California, USA
60°F
67°F / 40°F
calm
0.00"
Wednesday, December 12, 2018 5:27 PM PST

San Jacinto, California Weather Summary
Last 36 Hours

Temperature Winds Hourly Humidity Dewpoint
Time Report Norm Report Norm Max Gusts Precip. Rpt. Norm Rpt. Norm Pressure
1Wed 05:27 PM  59.7°F  59°F  calm  1 mph  3 mph  0.00"  58%  49%  44°F  39°F  30.22"
Wed 05:00 PM  61.9°F  60°F  3 mph SW  1 mph  7 mph  0.00"  53%  47%  44°F  39°F  30.21"
Wed 04:00 PM  66.0°F  64°F  1 mph W  2 mph  5 mph  0.00"  38%  40%  39°F  38°F  30.20"
Wed 03:00 PM  66.9°F  65°F  2 mph SW  2 mph  6 mph  0.00"  39%  38%  40°F  37°F  30.19"
2Wed 02:34 PM  67.3°F  65°F  3 mph W  2 mph  6 mph  ----  38%  37%  40°F  37°F  30.20"
Wed 02:00 PM  66.6°F  65°F  4 mph SW  2 mph  7 mph  0.00"  40%  38%  41°F  37°F  30.19"
Wed 01:00 PM  64.4°F  64°F  5 mph W  2 mph  8 mph  0.00"  44%  39%  41°F  38°F  30.18"
Wed 12:00 PM  64.2°F  63°F  3 mph SW  2 mph  7 mph  0.00"  47%  41%  43°F  38°F  30.19"
Wed 11:00 AM  61.0°F  60°F  2 mph W  1 mph  3 mph  0.00"  54%  46%  44°F  38°F  30.21"
Wed 10:00 AM  55.6°F  56°F  1 mph S  1 mph  3 mph  0.00"  60%  53%  41°F  38°F  30.23"
Wed 09:00 AM  50.4°F  52°F  1 mph E  1 mph  6 mph  0.00"  66%  60%  39°F  38°F  30.22"
Wed 08:00 AM  42.3°F  47°F  calm  1 mph  3 mph  0.00"  83%  70%  37°F  37°F  30.23"
Wed 07:00 AM  40.6°F  44°F  1 mph W  1 mph  3 mph  0.00"  85%  73%  36°F  36°F  30.21"
Wed 06:00 AM  40.3°F  44°F  1 mph W  1 mph  5 mph  0.00"  84%  73%  36°F  36°F  30.19"
3Wed 05:56 AM  40.3°F  44°F  2 mph W  1 mph  3 mph  ----  84%  74%  36°F  36°F  30.19"
Wed 05:00 AM  40.8°F  45°F  2 mph SW  1 mph  3 mph  0.00"  82%  73%  35°F  36°F  30.18"
Wed 04:00 AM  41.4°F  45°F  calm  1 mph  none  0.00"  82%  72%  36°F  36°F  30.17"
Wed 03:00 AM  42.6°F  46°F  calm  1 mph  none  0.00"  81%  71%  37°F  37°F  30.18"
Wed 02:00 AM  44.1°F  46°F  calm  1 mph  3 mph  0.00"  78%  70%  37°F  37°F  30.19"
Wed 01:00 AM  44.4°F  47°F  2 mph NW  1 mph  3 mph  0.00"  76%  69%  37°F  37°F  30.19"
Wed 12:00 AM  46.4°F  48°F  2 mph NW  1 mph  8 mph  0.00"  71%  67%  37°F  37°F  30.18"
Tue 11:00 PM  47.5°F  49°F  calm  1 mph  6 mph  0.00"  69%  65%  37°F  38°F  30.19"
Tue 10:00 PM  48.0°F  51°F  calm  1 mph  2 mph  0.00"  71%  64%  39°F  38°F  30.18"
Tue 09:00 PM  50.7°F  52°F  2 mph W  1 mph  5 mph  0.00"  64%  61%  38°F  38°F  30.17"
Tue 08:00 PM  53.1°F  54°F  3 mph S  1 mph  3 mph  0.00"  61%  58%  39°F  39°F  30.15"
Tue 07:00 PM  57.2°F  56°F  1 mph S  1 mph  3 mph  0.00"  63%  55%  44°F  39°F  30.13"
Tue 06:00 PM  60.1°F  58°F  2 mph S  1 mph  10 mph  0.00"  52%  51%  42°F  39°F  30.11"
Tue 05:00 PM  64.8°F  61°F  2 mph SW  2 mph  3 mph  0.00"  35%  46%  35°F  39°F  30.08"
Tue 04:00 PM  69.4°F  64°F  2 mph SW  2 mph  3 mph  0.00"  33%  40%  38°F  38°F  30.07"
Tue 03:00 PM  69.4°F  66°F  calm  2 mph  6 mph  0.00"  32%  37%  37°F  38°F  30.07"
Tue 02:00 PM  67.8°F  66°F  3 mph SW  2 mph  5 mph  0.00"  34%  37%  37°F  38°F  30.08"
Tue 01:00 PM  65.5°F  65°F  3 mph S  2 mph  6 mph  0.00"  41%  38%  40°F  38°F  30.09"
Tue 12:00 PM  62.6°F  63°F  calm  2 mph  6 mph  0.00"  45%  40%  40°F  38°F  30.11"
Tue 11:00 AM  58.8°F  61°F  3 mph W  1 mph  8 mph  0.00"  54%  45%  42°F  39°F  30.14"
Tue 10:00 AM  54.7°F  57°F  3 mph N  1 mph  11 mph  0.00"  62%  52%  41°F  39°F  30.15"
Tue 09:00 AM  51.4°F  52°F  4 mph E  1 mph  8 mph  0.00"  59%  60%  37°F  38°F  30.15"
Tue 08:00 AM  47.7°F  47°F  2 mph SW  1 mph  7 mph  0.00"  72%  69%  39°F  37°F  30.13"
Tue 07:00 AM  46.4°F  44°F  1 mph N  1 mph  7 mph  0.00"  75%  72%  39°F  36°F  30.14"
Tue 06:00 AM  46.9°F  44°F  2 mph NE  1 mph  6 mph  0.00"  72%  72%  38°F  36°F  30.13"

  1. Current weather data. No green row appears if the current weather data is also the high or low for the current day.
  2. High temperature for the current day.
  3. Low temperature for the current day.

The San Jacinto, California weather pages are a service of WeatherCurrents. San Jacinto is located in the heart of the San Jacinto Valley, near Hemet, the Soboba Casino, and at the foot of the San Jacinto Mountains.
Copyright ©Wed Dec 12 17:28:24 PST 2018  WeatherCurrents. All rights reserved. - Submit questions and comments - Privacy Policy

This page automatically refreshes every 10 minutes.